createdAt,value
2017-12-15T10:26:53.267Z,81.00
2017-12-15T10:31:37.730Z,91.00
2017-12-15T10:36:22.898Z,90.80
2017-12-15T10:41:09.558Z,90.40
2017-12-15T10:45:54.620Z,90.60
2017-12-15T10:50:39.067Z,90.10
2017-12-15T10:55:23.498Z,90.20
2017-12-15T11:00:08.840Z,88.80
2017-12-15T11:04:53.548Z,88.80
2017-12-15T11:09:38.140Z,88.40
2017-12-15T11:14:22.716Z,88.60
2017-12-15T11:19:07.255Z,89.10
2017-12-15T11:23:51.875Z,89.30
2017-12-15T11:28:36.374Z,89.10
2017-12-15T11:33:20.836Z,87.90
2017-12-15T11:38:05.347Z,88.00
2017-12-15T11:42:49.870Z,87.90
2017-12-15T11:47:34.435Z,87.50
2017-12-15T11:52:19.113Z,86.40
2017-12-15T11:57:05.385Z,87.10
2017-12-15T12:01:51.193Z,86.80
2017-12-15T12:06:36.427Z,86.70
2017-12-15T12:11:20.941Z,85.70
2017-12-15T12:16:05.504Z,85.50
2017-12-15T12:20:50.003Z,85.90
2017-12-15T12:25:35.272Z,85.20
2017-12-15T12:30:19.832Z,85.20
2017-12-15T12:35:05.295Z,86.50
2017-12-15T12:39:49.787Z,85.20
2017-12-15T12:44:35.118Z,85.50
2017-12-15T12:49:21.557Z,84.90
2017-12-15T12:54:06.336Z,84.80
2017-12-15T12:58:51.682Z,85.00
2017-12-15T13:03:36.303Z,84.60
2017-12-15T13:08:21.077Z,85.40
2017-12-15T13:13:06.229Z,85.20
2017-12-15T13:17:51.661Z,85.20
2017-12-15T13:22:36.174Z,85.20
2017-12-15T13:27:21.481Z,86.10
2017-12-15T13:32:06.789Z,85.90
2017-12-15T13:36:51.331Z,85.10
2017-12-15T13:41:36.626Z,85.10
2017-12-15T13:46:22.404Z,85.10
2017-12-15T13:51:08.272Z,84.50
2017-12-15T13:55:52.938Z,82.60
2017-12-15T14:00:37.475Z,82.20
2017-12-15T14:05:22.913Z,82.40
2017-12-15T14:10:08.015Z,81.50
2017-12-15T14:14:52.684Z,82.50
2017-12-15T14:19:37.907Z,82.70
2017-12-15T14:24:22.385Z,82.70
2017-12-15T14:29:06.916Z,83.50
2017-12-15T14:33:51.406Z,83.10
2017-12-15T14:38:35.967Z,83.60
2017-12-15T14:43:20.492Z,84.00
2017-12-15T14:48:05.430Z,86.00
2017-12-15T14:52:50.474Z,86.90
2017-12-15T14:57:36.472Z,88.10
2017-12-15T15:02:21.701Z,90.00
2017-12-15T15:07:06.250Z,89.30
2017-12-15T15:11:51.524Z,89.50
2017-12-15T15:16:36.798Z,88.90
2017-12-15T15:21:21.336Z,89.50
2017-12-15T15:26:05.860Z,90.00
2017-12-15T15:30:50.441Z,90.10
2017-12-15T15:35:35.771Z,90.70
2017-12-15T15:40:20.580Z,90.70
2017-12-15T15:45:06.542Z,90.70
2017-12-15T15:49:51.233Z,90.80
2017-12-15T15:54:36.809Z,91.20
2017-12-15T15:59:21.529Z,91.20
2017-12-15T16:04:06.190Z,91.20
2017-12-15T16:08:50.898Z,91.20
2017-12-15T16:13:35.455Z,91.20
2017-12-15T16:18:20.416Z,91.20
2017-12-15T16:23:05.015Z,91.40
2017-12-15T16:27:49.824Z,91.30
2017-12-15T16:32:35.230Z,91.60
2017-12-15T16:37:20.539Z,91.60
2017-12-15T16:42:06.252Z,91.50
2017-12-15T16:46:50.749Z,91.20
2017-12-15T16:51:35.680Z,91.00
2017-12-15T16:56:20.345Z,90.80
2017-12-15T17:01:05.521Z,90.60
2017-12-15T17:05:50.112Z,90.60
2017-12-15T17:10:34.613Z,91.00
2017-12-15T17:15:19.171Z,90.10
2017-12-15T17:20:04.454Z,90.10
2017-12-15T17:24:49.028Z,90.20
2017-12-15T17:29:34.036Z,90.00
2017-12-15T17:34:19.438Z,90.20
2017-12-15T17:39:04.499Z,90.20
2017-12-15T17:43:48.988Z,90.30
2017-12-15T17:48:33.655Z,90.10
2017-12-15T17:53:18.162Z,89.90
2017-12-15T17:58:03.062Z,89.50
2017-12-15T18:02:47.799Z,89.10
2017-12-15T18:07:33.146Z,88.80
2017-12-15T18:12:17.974Z,88.70
2017-12-15T18:17:04.006Z,90.00
2017-12-15T18:21:49.424Z,90.00
2017-12-15T18:26:34.122Z,89.90
2017-12-15T18:31:18.655Z,89.50
2017-12-15T18:36:03.275Z,89.20
2017-12-15T18:40:47.926Z,88.80
2017-12-15T18:45:32.586Z,88.60
2017-12-15T18:50:17.298Z,87.90
2017-12-15T18:55:01.887Z,87.80
2017-12-15T18:59:47.027Z,87.10
2017-12-15T19:04:31.729Z,86.40
2017-12-15T19:09:16.604Z,86.10
2017-12-15T19:14:02.008Z,86.30
2017-12-15T19:18:47.607Z,86.10
2017-12-15T19:23:33.486Z,86.40
2017-12-15T19:28:18.351Z,86.30
2017-12-15T19:33:03.260Z,86.70
2017-12-15T19:37:48.923Z,86.70
2017-12-15T19:42:34.275Z,86.80
2017-12-15T19:47:19.779Z,87.70
2017-12-15T19:52:05.250Z,87.70
2017-12-15T19:56:50.794Z,88.20
2017-12-15T20:01:35.466Z,88.20
2017-12-15T20:06:20.726Z,88.00
2017-12-15T20:11:05.553Z,87.90
2017-12-15T20:15:50.239Z,88.40
2017-12-15T20:20:36.730Z,89.20
2017-12-15T20:26:25.614Z,90.00
2017-12-15T20:31:10.226Z,90.00
2017-12-15T20:35:55.285Z,90.20
2017-12-15T20:40:40.742Z,90.20
2017-12-15T20:45:26.222Z,90.20
2017-12-15T20:50:10.865Z,90.20
2017-12-15T20:54:55.795Z,90.30
2017-12-15T20:59:40.496Z,90.30
2017-12-15T21:04:25.952Z,90.30
2017-12-15T21:09:11.300Z,90.40
2017-12-15T21:13:56.199Z,90.40
2017-12-15T21:18:40.743Z,90.40
2017-12-15T21:23:25.263Z,90.80
2017-12-15T21:28:09.763Z,90.70
2017-12-15T21:32:55.059Z,90.80
2017-12-15T21:37:39.601Z,90.70
2017-12-15T21:42:25.130Z,91.20
2017-12-15T21:47:09.779Z,91.50
2017-12-15T21:51:55.211Z,91.70
2017-12-15T21:56:39.935Z,91.70
2017-12-15T22:02:35.005Z,91.70
2017-12-15T22:07:20.708Z,91.70
2017-12-15T22:12:07.426Z,91.90
2017-12-15T22:16:52.252Z,92.60
2017-12-15T22:21:37.130Z,93.10
2017-12-15T22:26:21.953Z,93.50
2017-12-15T22:31:07.907Z,93.40
2017-12-15T22:35:52.862Z,93.30
2017-12-15T22:40:37.849Z,93.40
2017-12-15T22:45:22.827Z,93.20
2017-12-15T22:50:07.792Z,92.90
2017-12-15T22:54:52.697Z,93.20
2017-12-15T22:59:37.542Z,93.30
2017-12-15T23:04:22.688Z,93.50
2017-12-15T23:09:07.767Z,93.30
2017-12-15T23:13:52.537Z,93.30
2017-12-15T23:18:44.427Z,93.00
2017-12-15T23:23:30.111Z,92.80
2017-12-15T23:28:14.849Z,92.80
2017-12-15T23:32:59.756Z,92.60
2017-12-15T23:37:44.644Z,92.70
2017-12-15T23:42:29.500Z,92.80
2017-12-15T23:47:14.312Z,92.70
2017-12-15T23:51:59.333Z,93.10
2017-12-15T23:57:02.022Z,93.30
